Map

Track Data

SID SEASON NUMBER BASIN SUBBASIN NAME ISO_TIME NATURE LAT LON WMO_WIND WMO_PRES WMO_AGENCY TRACK_TYPE DIST2LAND LANDFALL IFLAG USA_AGENCY USA_ATCF_ID USA_LAT USA_LON USA_RECORD USA_STATUS USA_WIND USA_PRES USA_SSHS USA_R34_NE USA_R34_SE USA_R34_SW USA_R34_NW USA_R50_NE USA_R50_SE USA_R50_SW USA_R50_NW USA_R64_NE USA_R64_SE USA_R64_SW USA_R64_NW USA_POCI USA_ROCI USA_RMW USA_EYE TOKYO_LAT TOKYO_LON TOKYO_GRADE TOKYO_WIND TOKYO_PRES TOKYO_R50_DIR TOKYO_R50_LONG TOKYO_R50_SHORT TOKYO_R30_DIR TOKYO_R30_LONG TOKYO_R30_SHORT TOKYO_LAND CMA_LAT CMA_LON CMA_CAT CMA_WIND CMA_PRES HKO_LAT HKO_LON HKO_CAT HKO_WIND HKO_PRES NEWDELHI_LAT NEWDELHI_LON NEWDELHI_GRADE NEWDELHI_WIND NEWDELHI_PRES NEWDELHI_CI NEWDELHI_DP NEWDELHI_POCI REUNION_LAT REUNION_LON REUNION_TYPE REUNION_WIND REUNION_PRES REUNION_TNUM REUNION_CI REUNION_RMW REUNION_R34_NE REUNION_R34_SE REUNION_R34_SW REUNION_R34_NW REUNION_R50_NE REUNION_R50_SE REUNION_R50_SW REUNION_R50_NW REUNION_R64_NE REUNION_R64_SE REUNION_R64_SW REUNION_R64_NW BOM_LAT BOM_LON BOM_TYPE BOM_WIND BOM_PRES BOM_TNUM BOM_CI BOM_RMW BOM_R34_NE BOM_R34_SE BOM_R34_SW BOM_R34_NW BOM_R50_NE BOM_R50_SE BOM_R50_SW BOM_R50_NW BOM_R64_NE BOM_R64_SE BOM_R64_SW BOM_R64_NW BOM_ROCI BOM_POCI BOM_EYE BOM_POS_METHOD BOM_PRES_METHOD NADI_LAT NADI_LON NADI_CAT NADI_WIND NADI_PRES WELLINGTON_LAT WELLINGTON_LON WELLINGTON_WIND WELLINGTON_PRES DS824_LAT DS824_LON DS824_STAGE DS824_WIND DS824_PRES TD9636_LAT TD9636_LON TD9636_STAGE TD9636_WIND TD9636_PRES TD9635_LAT TD9635_LON TD9635_WIND TD9635_PRES TD9635_ROCI NEUMANN_LAT NEUMANN_LON NEUMANN_CLASS NEUMANN_WIND NEUMANN_PRES MLC_LAT MLC_LON MLC_CLASS MLC_WIND MLC_PRES USA_GUST BOM_GUST BOM_GUST_PER REUNION_GUST REUNION_GUST_PER USA_SEAHGT USA_SEARAD_NE USA_SEARAD_SE USA_SEARAD_SW USA_SEARAD_NW STORM_SPEED STORM_DIR
1938309N12073 1938 62 NI AS NOT_NAMED 1938-11-05 00:00:00 TS 11.6000 72.8000 main 254 244 _________O____ -1 11.6000 72.8000 TC 30 5 346
1938309N12073 1938 62 NI AS NOT_NAMED 1938-11-05 03:00:00 TS 11.8400 72.7400 main 254 241 _________PO___ -1 11.9600 72.7100 TC 33 11.6000 72.8000 1 6 343
1938309N12073 1938 62 NI AS NOT_NAMED 1938-11-05 06:00:00 TS 12.1519 72.6319 main 248 245 _________OP___ -1 12.3000 72.6000 TC 37 11.9297 72.6799 1 7 339
1938309N12073 1938 62 NI AS NOT_NAMED 1938-11-05 09:00:00 TS 12.4575 72.5004 main 251 250 _________PP___ -1 12.6075 72.4575 TC 41 12.2575 72.5576 1 6 336
1938309N12073 1938 62 NI AS NOT_NAMED 1938-11-05 12:00:00 TS 12.7408 72.3658 main 258 255 _________OP___ -1 12.9000 72.3000 TC 45 12.5816 72.4316 1 7 335
1938309N12073 1938 62 NI AS NOT_NAMED 1938-11-05 15:00:00 TS 13.0500 72.2213 main 271 267 _________PO___ -1 13.2000 72.1425 TC 45 12.9000 72.3000 3 7 336
1938309N12073 1938 62 NI AS NOT_NAMED 1938-11-05 18:00:00 TS 13.3556 72.0814 main 266 263 _________OP___ -1 13.5000 72.0000 TC 45 13.2113 72.1628 3 7 337
1938309N12073 1938 62 NI AS NOT_NAMED 1938-11-05 21:00:00 TS 13.6613 71.9563 main 257 253 _________PP___ -1 13.8075 71.8850 TC 45 13.5150 72.0275 3 6 340
1938309N12073 1938 62 NI AS NOT_NAMED 1938-11-06 00:00:00 TS 13.9556 71.8517 main 248 247 _________OP___ -1 14.1000 71.8000 TC 45 13.8113 71.9035 3 6 342
1938309N12073 1938 62 NI AS NOT_NAMED 1938-11-06 03:00:00 TS 14.2250 71.7712 main 247 243 _________PO___ -1 14.3500 71.7424 TC 45 14.1000 71.8000 3 6 346
1938309N12073 1938 62 NI AS NOT_NAMED 1938-11-06 06:00:00 TS 14.4951 71.7141 main 245 232 _________OP___ -1 14.6000 71.7000 TC 45 14.3903 71.7283 3 6 349
1938309N12073 1938 62 NI AS NOT_NAMED 1938-11-06 09:00:00 TS 14.7900 71.6637 main 232 228 _________PP___ -1 14.9075 71.6500 TC 45 14.6724 71.6773 3 6 352
1938309N12073 1938 62 NI AS NOT_NAMED 1938-11-06 12:00:00 TS 15.0717 71.6188 main 232 222 _________OP___ -1 15.2000 71.6000 TC 45 14.9434 71.6377 3 5 350
1938309N12073 1938 62 NI AS NOT_NAMED 1938-11-06 15:00:00 TS 15.3037 71.5750 main 222 217 _________PO___ -1 15.4075 71.5500 TC 45 15.2000 71.6000 3 5 349
1938309N12073 1938 62 NI AS NOT_NAMED 1938-11-06 18:00:00 TS 15.5156 71.5250 main 222 212 _________OP___ -1 15.6000 71.5000 TC 45 15.4312 71.5499 3 5 348
1938309N12073 1938 62 NI AS NOT_NAMED 1938-11-06 21:00:00 TS 15.7462 71.4750 main 212 203 _________PP___ -1 15.8425 71.4500 TC 45 15.6500 71.4999 3 5 349
1938309N12073 1938 62 NI AS NOT_NAMED 1938-11-07 00:00:00 TS 15.9844 71.4250 main 210 205 _________OP___ -1 16.1000 71.4000 TC 45 15.8687 71.4499 3 5 349
1938309N12073 1938 62 NI AS NOT_NAMED 1938-11-07 03:00:00 TS 16.2213 71.3750 main 205 203 _________PO___ -1 16.3425 71.3500 TC 49 16.1000 71.4000 3 5 349
1938309N12073 1938 62 NI AS NOT_NAMED 1938-11-07 06:00:00 TS 16.4803 71.3270 main 213 213 _________OP___ -1 16.6000 71.3000 TC 54 16.3606 71.3540 3 6 351
1938309N12073 1938 62 NI AS NOT_NAMED 1938-11-07 09:00:00 TS 16.7637 71.2787 main 211 206 _________PP___ -1 16.8925 71.2500 TC 59 16.6350 71.3074 3 6 350
1938309N12073 1938 62 NI AS NOT_NAMED 1938-11-07 12:00:00 TS 17.0584 71.2285 main 209 204 _________OP___ -1 17.2000 71.2000 TC 64 16.9169 71.2571 3 6 351
1938309N12073 1938 62 NI AS NOT_NAMED 1938-11-07 15:00:00 TS 17.3537 71.1787 main 201 196 _________PO___ -1 17.5075 71.1575 TC 55 17.2000 71.2000 4 6 350
1938309N12073 1938 62 NI AS NOT_NAMED 1938-11-07 18:00:00 TS 17.6168 71.1194 main 201 195 _________OP___ -1 17.8000 71.1000 TC 47 17.4794 71.1339 4 5 346
1938309N12073 1938 62 NI AS NOT_NAMED 1938-11-07 21:00:00 TS 17.8770 71.0402 main 203 201 _________PP___ -1 18.0600 71.0101 TC 38 17.7550 71.0602 4 5 342
1938309N12073 1938 62 NI AS NOT_NAMED 1938-11-08 00:00:00 TS 18.1188 70.9543 main 201 201 _________OP___ -1 18.3000 70.9000 TC 30 18.0282 70.9815 4 4 343
1938309N12073 1938 62 NI AS NOT_NAMED 1938-11-08 03:00:00 NR 18.3000 70.9000 main 211 __________O___ -1 TC 18.3000 70.9000 1 4 343

About IBTrACS Database

This database is a web-friendly format of International Best Track Archive for Climate Stewardship (IBTrACS), a global best track data archive curated by NOAA dating back to 1842.

Updated: 2021-11-26